sensor_id;sensor_type;location;lat;lon;timestamp;P1;durP1;ratioP1;P2;durP2;ratioP2
16954;SDS011;8594;52.052;8.354;2022-08-26T00:00:57;13.67;;;8.00;;
16954;SDS011;8594;52.052;8.354;2022-08-26T00:03:27;13.83;;;7.80;;
16954;SDS011;8594;52.052;8.354;2022-08-26T00:05:55;12.57;;;8.23;;
16954;SDS011;8594;52.052;8.354;2022-08-26T00:08:22;10.40;;;7.57;;
16954;SDS011;8594;52.052;8.354;2022-08-26T00:10:49;16.53;;;8.63;;
16954;SDS011;8594;52.052;8.354;2022-08-26T00:13:15;17.80;;;8.83;;
16954;SDS011;8594;52.052;8.354;2022-08-26T00:15:43;13.90;;;8.57;;
16954;SDS011;8594;52.052;8.354;2022-08-26T00:18:10;13.27;;;8.13;;
16954;SDS011;8594;52.052;8.354;2022-08-26T00:20:39;13.67;;;8.90;;
16954;SDS011;8594;52.052;8.354;2022-08-26T00:23:06;15.63;;;8.20;;
16954;SDS011;8594;52.052;8.354;2022-08-26T00:25:33;18.00;;;8.90;;
16954;SDS011;8594;52.052;8.354;2022-08-26T00:28:00;14.23;;;8.73;;
16954;SDS011;8594;52.052;8.354;2022-08-26T00:30:28;14.83;;;9.37;;
16954;SDS011;8594;52.052;8.354;2022-08-26T00:32:58;12.03;;;8.60;;
16954;SDS011;8594;52.052;8.354;2022-08-26T00:35:27;11.10;;;7.77;;
16954;SDS011;8594;52.052;8.354;2022-08-26T00:37:56;14.30;;;8.70;;
16954;SDS011;8594;52.052;8.354;2022-08-26T00:40:25;14.33;;;8.80;;
16954;SDS011;8594;52.052;8.354;2022-08-26T00:42:56;14.47;;;9.07;;
16954;SDS011;8594;52.052;8.354;2022-08-26T00:45:25;12.47;;;8.53;;
16954;SDS011;8594;52.052;8.354;2022-08-26T00:47:54;18.00;;;8.63;;
16954;SDS011;8594;52.052;8.354;2022-08-26T00:50:28;10.23;;;7.83;;
16954;SDS011;8594;52.052;8.354;2022-08-26T00:52:59;9.57;;;8.00;;
16954;SDS011;8594;52.052;8.354;2022-08-26T00:55:47;14.03;;;8.50;;
16954;SDS011;8594;52.052;8.354;2022-08-26T00:58:20;14.93;;;9.00;;
16954;SDS011;8594;52.052;8.354;2022-08-26T01:00:50;12.67;;;8.57;;
16954;SDS011;8594;52.052;8.354;2022-08-26T01:03:18;13.57;;;9.20;;
16954;SDS011;8594;52.052;8.354;2022-08-26T01:05:49;16.47;;;9.07;;
16954;SDS011;8594;52.052;8.354;2022-08-26T01:08:21;11.87;;;8.40;;
16954;SDS011;8594;52.052;8.354;2022-08-26T01:10:49;12.67;;;8.93;;
16954;SDS011;8594;52.052;8.354;2022-08-26T01:13:17;12.47;;;9.07;;
16954;SDS011;8594;52.052;8.354;2022-08-26T01:15:45;13.63;;;8.80;;
16954;SDS011;8594;52.052;8.354;2022-08-26T01:18:16;15.90;;;8.67;;
16954;SDS011;8594;52.052;8.354;2022-08-26T01:20:46;20.23;;;9.00;;
16954;SDS011;8594;52.052;8.354;2022-08-26T01:23:26;14.67;;;8.87;;
16954;SDS011;8594;52.052;8.354;2022-08-26T01:25:58;13.23;;;7.80;;
16954;SDS011;8594;52.052;8.354;2022-08-26T01:28:33;15.43;;;8.23;;
16954;SDS011;8594;52.052;8.354;2022-08-26T01:31:03;19.23;;;8.07;;
16954;SDS011;8594;52.052;8.354;2022-08-26T01:33:37;18.07;;;7.97;;
16954;SDS011;8594;52.052;8.354;2022-08-26T01:36:12;20.33;;;9.13;;
16954;SDS011;8594;52.052;8.354;2022-08-26T01:38:41;27.03;;;8.07;;
16954;SDS011;8594;52.052;8.354;2022-08-26T01:41:09;13.80;;;8.07;;
16954;SDS011;8594;52.052;8.354;2022-08-26T01:43:39;16.87;;;8.47;;
16954;SDS011;8594;52.052;8.354;2022-08-26T01:46:10;23.03;;;7.83;;
16954;SDS011;8594;52.052;8.354;2022-08-26T01:48:39;16.90;;;7.83;;
16954;SDS011;8594;52.052;8.354;2022-08-26T01:51:10;15.03;;;7.33;;
16954;SDS011;8594;52.052;8.354;2022-08-26T01:53:38;19.60;;;8.03;;
16954;SDS011;8594;52.052;8.354;2022-08-26T01:56:08;18.27;;;8.33;;
16954;SDS011;8594;52.052;8.354;2022-08-26T01:58:39;23.20;;;8.40;;
16954;SDS011;8594;52.052;8.354;2022-08-26T02:01:09;23.13;;;8.57;;
16954;SDS011;8594;52.052;8.354;2022-08-26T02:03:38;20.93;;;8.57;;
16954;SDS011;8594;52.052;8.354;2022-08-26T02:06:17;23.43;;;8.80;;
16954;SDS011;8594;52.052;8.354;2022-08-26T02:08:47;24.10;;;7.83;;
16954;SDS011;8594;52.052;8.354;2022-08-26T02:11:19;23.93;;;8.40;;
16954;SDS011;8594;52.052;8.354;2022-08-26T02:13:48;27.37;;;9.00;;
16954;SDS011;8594;52.052;8.354;2022-08-26T02:16:21;22.70;;;9.13;;
16954;SDS011;8594;52.052;8.354;2022-08-26T02:18:55;23.03;;;9.40;;
16954;SDS011;8594;52.052;8.354;2022-08-26T02:21:24;24.17;;;8.70;;
16954;SDS011;8594;52.052;8.354;2022-08-26T02:23:52;27.80;;;9.27;;
16954;SDS011;8594;52.052;8.354;2022-08-26T02:26:21;25.73;;;8.90;;
16954;SDS011;8594;52.052;8.354;2022-08-26T02:28:51;23.83;;;9.00;;
16954;SDS011;8594;52.052;8.354;2022-08-26T02:31:25;30.53;;;9.60;;
16954;SDS011;8594;52.052;8.354;2022-08-26T02:33:51;20.70;;;8.93;;
16954;SDS011;8594;52.052;8.354;2022-08-26T02:36:19;16.70;;;8.10;;
16954;SDS011;8594;52.052;8.354;2022-08-26T02:38:48;20.90;;;8.47;;
16954;SDS011;8594;52.052;8.354;2022-08-26T02:41:16;20.77;;;7.83;;
16954;SDS011;8594;52.052;8.354;2022-08-26T02:43:43;22.10;;;8.63;;
16954;SDS011;8594;52.052;8.354;2022-08-26T02:46:10;27.50;;;8.63;;
16954;SDS011;8594;52.052;8.354;2022-08-26T02:48:37;28.53;;;9.20;;
16954;SDS011;8594;52.052;8.354;2022-08-26T02:51:04;25.93;;;9.17;;
16954;SDS011;8594;52.052;8.354;2022-08-26T02:53:31;20.40;;;8.00;;
16954;SDS011;8594;52.052;8.354;2022-08-26T02:55:58;22.80;;;8.50;;
16954;SDS011;8594;52.052;8.354;2022-08-26T02:58:26;22.27;;;8.80;;
16954;SDS011;8594;52.052;8.354;2022-08-26T03:00:53;27.73;;;8.70;;
16954;SDS011;8594;52.052;8.354;2022-08-26T03:03:20;19.63;;;8.17;;
16954;SDS011;8594;52.052;8.354;2022-08-26T03:05:47;23.13;;;9.00;;
16954;SDS011;8594;52.052;8.354;2022-08-26T03:08:14;21.90;;;8.63;;
16954;SDS011;8594;52.052;8.354;2022-08-26T03:10:41;24.73;;;8.77;;
16954;SDS011;8594;52.052;8.354;2022-08-26T03:13:08;23.73;;;9.10;;
16954;SDS011;8594;52.052;8.354;2022-08-26T03:15:36;21.17;;;8.97;;
16954;SDS011;8594;52.052;8.354;2022-08-26T03:18:04;22.80;;;8.93;;
16954;SDS011;8594;52.052;8.354;2022-08-26T03:20:31;18.40;;;8.93;;
16954;SDS011;8594;52.052;8.354;2022-08-26T03:22:59;20.33;;;8.93;;
16954;SDS011;8594;52.052;8.354;2022-08-26T03:25:26;27.57;;;9.20;;
16954;SDS011;8594;52.052;8.354;2022-08-26T03:27:53;27.83;;;8.83;;
16954;SDS011;8594;52.052;8.354;2022-08-26T03:30:19;19.17;;;9.00;;
16954;SDS011;8594;52.052;8.354;2022-08-26T03:33:05;21.53;;;9.10;;
16954;SDS011;8594;52.052;8.354;2022-08-26T03:35:35;20.97;;;8.80;;
16954;SDS011;8594;52.052;8.354;2022-08-26T03:38:05;25.57;;;9.83;;
16954;SDS011;8594;52.052;8.354;2022-08-26T03:40:33;25.97;;;9.93;;
16954;SDS011;8594;52.052;8.354;2022-08-26T03:43:01;18.27;;;10.00;;
16954;SDS011;8594;52.052;8.354;2022-08-26T03:45:29;19.73;;;9.53;;
16954;SDS011;8594;52.052;8.354;2022-08-26T03:47:56;28.17;;;10.97;;
16954;SDS011;8594;52.052;8.354;2022-08-26T03:50:25;19.83;;;9.40;;
16954;SDS011;8594;52.052;8.354;2022-08-26T03:52:53;16.57;;;9.37;;
16954;SDS011;8594;52.052;8.354;2022-08-26T03:55:22;24.40;;;9.40;;
16954;SDS011;8594;52.052;8.354;2022-08-26T03:57:52;21.37;;;10.10;;
16954;SDS011;8594;52.052;8.354;2022-08-26T04:00:19;21.43;;;9.97;;
16954;SDS011;8594;52.052;8.354;2022-08-26T04:02:47;23.63;;;9.63;;
16954;SDS011;8594;52.052;8.354;2022-08-26T04:05:15;21.17;;;9.97;;
16954;SDS011;8594;52.052;8.354;2022-08-26T04:07:46;17.60;;;9.80;;
16954;SDS011;8594;52.052;8.354;2022-08-26T04:10:14;22.93;;;10.40;;
16954;SDS011;8594;52.052;8.354;2022-08-26T04:12:45;19.20;;;9.63;;
16954;SDS011;8594;52.052;8.354;2022-08-26T04:15:14;15.83;;;9.47;;
16954;SDS011;8594;52.052;8.354;2022-08-26T04:17:42;26.67;;;10.80;;
16954;SDS011;8594;52.052;8.354;2022-08-26T04:20:09;25.83;;;9.90;;
16954;SDS011;8594;52.052;8.354;2022-08-26T04:22:38;16.70;;;9.10;;
16954;SDS011;8594;52.052;8.354;2022-08-26T04:25:07;22.63;;;9.67;;
16954;SDS011;8594;52.052;8.354;2022-08-26T04:27:35;21.17;;;9.57;;
16954;SDS011;8594;52.052;8.354;2022-08-26T04:30:02;23.40;;;10.47;;
16954;SDS011;8594;52.052;8.354;2022-08-26T04:32:30;19.30;;;10.37;;
16954;SDS011;8594;52.052;8.354;2022-08-26T04:34:57;22.97;;;10.13;;
16954;SDS011;8594;52.052;8.354;2022-08-26T04:37:24;20.93;;;11.00;;
16954;SDS011;8594;52.052;8.354;2022-08-26T04:39:51;20.27;;;10.07;;
16954;SDS011;8594;52.052;8.354;2022-08-26T04:42:20;23.43;;;10.23;;
16954;SDS011;8594;52.052;8.354;2022-08-26T04:44:47;17.37;;;10.10;;
16954;SDS011;8594;52.052;8.354;2022-08-26T04:47:14;23.53;;;10.47;;
16954;SDS011;8594;52.052;8.354;2022-08-26T04:49:41;22.57;;;10.20;;
16954;SDS011;8594;52.052;8.354;2022-08-26T04:52:08;17.83;;;10.53;;
16954;SDS011;8594;52.052;8.354;2022-08-26T04:54:35;18.20;;;9.97;;
16954;SDS011;8594;52.052;8.354;2022-08-26T04:57:02;27.40;;;11.10;;
16954;SDS011;8594;52.052;8.354;2022-08-26T04:59:31;24.47;;;11.23;;
16954;SDS011;8594;52.052;8.354;2022-08-26T05:01:57;24.33;;;10.57;;
16954;SDS011;8594;52.052;8.354;2022-08-26T05:04:25;20.50;;;10.90;;
16954;SDS011;8594;52.052;8.354;2022-08-26T05:06:52;31.33;;;12.57;;
16954;SDS011;8594;52.052;8.354;2022-08-26T05:09:19;22.73;;;11.30;;
16954;SDS011;8594;52.052;8.354;2022-08-26T05:11:46;24.23;;;11.97;;
16954;SDS011;8594;52.052;8.354;2022-08-26T05:14:14;26.43;;;11.97;;
16954;SDS011;8594;52.052;8.354;2022-08-26T05:16:43;23.00;;;11.80;;
16954;SDS011;8594;52.052;8.354;2022-08-26T05:19:10;22.27;;;11.33;;
16954;SDS011;8594;52.052;8.354;2022-08-26T05:21:36;27.23;;;11.57;;
16954;SDS011;8594;52.052;8.354;2022-08-26T05:24:03;28.37;;;12.43;;
16954;SDS011;8594;52.052;8.354;2022-08-26T05:26:31;23.83;;;12.50;;
16954;SDS011;8594;52.052;8.354;2022-08-26T05:28:58;23.00;;;11.60;;
16954;SDS011;8594;52.052;8.354;2022-08-26T05:31:26;20.23;;;10.97;;
16954;SDS011;8594;52.052;8.354;2022-08-26T05:33:57;26.10;;;11.30;;
16954;SDS011;8594;52.052;8.354;2022-08-26T05:36:26;24.47;;;11.43;;
16954;SDS011;8594;52.052;8.354;2022-08-26T05:38:55;38.03;;;12.20;;
16954;SDS011;8594;52.052;8.354;2022-08-26T05:41:23;26.27;;;11.23;;
16954;SDS011;8594;52.052;8.354;2022-08-26T05:43:54;38.63;;;12.13;;
16954;SDS011;8594;52.052;8.354;2022-08-26T05:46:21;26.43;;;11.40;;
16954;SDS011;8594;52.052;8.354;2022-08-26T05:48:48;27.03;;;12.07;;
16954;SDS011;8594;52.052;8.354;2022-08-26T05:51:16;24.27;;;11.10;;
16954;SDS011;8594;52.052;8.354;2022-08-26T05:53:44;25.80;;;12.33;;
16954;SDS011;8594;52.052;8.354;2022-08-26T05:56:11;26.53;;;11.00;;
16954;SDS011;8594;52.052;8.354;2022-08-26T05:58:40;30.83;;;11.33;;
16954;SDS011;8594;52.052;8.354;2022-08-26T06:01:08;23.53;;;11.77;;
16954;SDS011;8594;52.052;8.354;2022-08-26T06:03:39;22.63;;;10.43;;
16954;SDS011;8594;52.052;8.354;2022-08-26T06:06:09;20.17;;;10.30;;
16954;SDS011;8594;52.052;8.354;2022-08-26T06:08:40;22.87;;;11.10;;
16954;SDS011;8594;52.052;8.354;2022-08-26T06:11:08;26.90;;;12.50;;
16954;SDS011;8594;52.052;8.354;2022-08-26T06:13:39;24.80;;;12.07;;
16954;SDS011;8594;52.052;8.354;2022-08-26T06:16:08;23.37;;;10.90;;
16954;SDS011;8594;52.052;8.354;2022-08-26T06:18:37;26.03;;;11.30;;
16954;SDS011;8594;52.052;8.354;2022-08-26T06:21:10;28.07;;;12.37;;
16954;SDS011;8594;52.052;8.354;2022-08-26T06:23:42;26.73;;;12.57;;
16954;SDS011;8594;52.052;8.354;2022-08-26T06:26:28;31.57;;;12.67;;
16954;SDS011;8594;52.052;8.354;2022-08-26T06:28:55;21.60;;;11.20;;
16954;SDS011;8594;52.052;8.354;2022-08-26T06:31:23;26.47;;;12.03;;
16954;SDS011;8594;52.052;8.354;2022-08-26T06:33:51;32.93;;;12.40;;
16954;SDS011;8594;52.052;8.354;2022-08-26T06:36:19;23.77;;;12.17;;
16954;SDS011;8594;52.052;8.354;2022-08-26T06:38:51;25.17;;;11.53;;
16954;SDS011;8594;52.052;8.354;2022-08-26T06:41:21;22.87;;;10.07;;
16954;SDS011;8594;52.052;8.354;2022-08-26T06:43:48;21.20;;;11.27;;
16954;SDS011;8594;52.052;8.354;2022-08-26T06:46:16;26.33;;;10.53;;
16954;SDS011;8594;52.052;8.354;2022-08-26T06:48:46;19.63;;;10.17;;
16954;SDS011;8594;52.052;8.354;2022-08-26T06:51:15;19.67;;;10.50;;
16954;SDS011;8594;52.052;8.354;2022-08-26T06:53:44;24.38;;;11.18;;
16954;SDS011;8594;52.052;8.354;2022-08-26T06:56:17;24.27;;;11.23;;
16954;SDS011;8594;52.052;8.354;2022-08-26T06:58:47;21.15;;;10.90;;
16954;SDS011;8594;52.052;8.354;2022-08-26T07:01:14;27.98;;;12.43;;
16954;SDS011;8594;52.052;8.354;2022-08-26T07:03:43;18.67;;;11.98;;
16954;SDS011;8594;52.052;8.354;2022-08-26T07:06:10;23.48;;;11.00;;
16954;SDS011;8594;52.052;8.354;2022-08-26T07:08:38;20.45;;;11.45;;
16954;SDS011;8594;52.052;8.354;2022-08-26T07:11:07;22.00;;;12.70;;
16954;SDS011;8594;52.052;8.354;2022-08-26T07:13:36;17.90;;;11.02;;
16954;SDS011;8594;52.052;8.354;2022-08-26T07:16:04;20.58;;;11.23;;
16954;SDS011;8594;52.052;8.354;2022-08-26T07:18:32;19.30;;;11.25;;
16954;SDS011;8594;52.052;8.354;2022-08-26T07:21:02;17.52;;;11.77;;
16954;SDS011;8594;52.052;8.354;2022-08-26T07:23:30;16.95;;;11.80;;
16954;SDS011;8594;52.052;8.354;2022-08-26T07:25:58;24.45;;;12.40;;
16954;SDS011;8594;52.052;8.354;2022-08-26T07:28:28;17.95;;;12.43;;
16954;SDS011;8594;52.052;8.354;2022-08-26T07:30:57;27.13;;;14.30;;
16954;SDS011;8594;52.052;8.354;2022-08-26T07:33:24;20.15;;;13.25;;
16954;SDS011;8594;52.052;8.354;2022-08-26T07:35:50;23.40;;;14.07;;
16954;SDS011;8594;52.052;8.354;2022-08-26T07:38:17;22.90;;;13.68;;
16954;SDS011;8594;52.052;8.354;2022-08-26T07:40:44;21.13;;;13.07;;
16954;SDS011;8594;52.052;8.354;2022-08-26T07:43:12;20.83;;;13.35;;
16954;SDS011;8594;52.052;8.354;2022-08-26T07:45:39;24.90;;;14.43;;
16954;SDS011;8594;52.052;8.354;2022-08-26T07:48:08;27.75;;;14.73;;
16954;SDS011;8594;52.052;8.354;2022-08-26T07:50:34;19.10;;;13.45;;
16954;SDS011;8594;52.052;8.354;2022-08-26T07:53:02;23.65;;;15.00;;
16954;SDS011;8594;52.052;8.354;2022-08-26T07:55:29;22.70;;;14.65;;
16954;SDS011;8594;52.052;8.354;2022-08-26T07:57:58;27.80;;;15.02;;
16954;SDS011;8594;52.052;8.354;2022-08-26T08:00:25;28.25;;;16.67;;
16954;SDS011;8594;52.052;8.354;2022-08-26T08:02:56;26.70;;;16.33;;
16954;SDS011;8594;52.052;8.354;2022-08-26T08:05:25;38.30;;;16.13;;
16954;SDS011;8594;52.052;8.354;2022-08-26T08:07:54;21.75;;;15.30;;
16954;SDS011;8594;52.052;8.354;2022-08-26T08:10:22;23.90;;;15.55;;
16954;SDS011;8594;52.052;8.354;2022-08-26T08:12:51;27.35;;;15.48;;
16954;SDS011;8594;52.052;8.354;2022-08-26T08:15:20;23.55;;;17.58;;
16954;SDS011;8594;52.052;8.354;2022-08-26T08:17:51;21.42;;;16.88;;
16954;SDS011;8594;52.052;8.354;2022-08-26T08:20:20;24.48;;;17.45;;
16954;SDS011;8594;52.052;8.354;2022-08-26T08:22:49;30.73;;;17.27;;
16954;SDS011;8594;52.052;8.354;2022-08-26T08:25:17;25.05;;;16.55;;
16954;SDS011;8594;52.052;8.354;2022-08-26T08:27:44;24.35;;;16.33;;
16954;SDS011;8594;52.052;8.354;2022-08-26T08:30:12;25.05;;;16.45;;
16954;SDS011;8594;52.052;8.354;2022-08-26T08:32:43;28.48;;;17.42;;
16954;SDS011;8594;52.052;8.354;2022-08-26T08:35:11;25.85;;;16.75;;
16954;SDS011;8594;52.052;8.354;2022-08-26T08:37:41;26.27;;;16.60;;
16954;SDS011;8594;52.052;8.354;2022-08-26T08:40:10;26.42;;;18.55;;
16954;SDS011;8594;52.052;8.354;2022-08-26T08:42:42;29.05;;;18.30;;
16954;SDS011;8594;52.052;8.354;2022-08-26T08:45:14;27.60;;;16.50;;
16954;SDS011;8594;52.052;8.354;2022-08-26T08:47:48;25.33;;;15.23;;
16954;SDS011;8594;52.052;8.354;2022-08-26T08:50:22;22.77;;;15.50;;
16954;SDS011;8594;52.052;8.354;2022-08-26T08:52:57;24.25;;;14.45;;
16954;SDS011;8594;52.052;8.354;2022-08-26T08:55:45;28.40;;;17.35;;
16954;SDS011;8594;52.052;8.354;2022-08-26T08:58:29;24.33;;;16.75;;
16954;SDS011;8594;52.052;8.354;2022-08-26T09:01:17;22.45;;;14.55;;
16954;SDS011;8594;52.052;8.354;2022-08-26T09:04:11;30.00;;;17.27;;
16954;SDS011;8594;52.052;8.354;2022-08-26T09:06:58;27.33;;;17.30;;
16954;SDS011;8594;52.052;8.354;2022-08-26T09:09:28;28.25;;;18.23;;
16954;SDS011;8594;52.052;8.354;2022-08-26T09:12:06;29.70;;;17.85;;
16954;SDS011;8594;52.052;8.354;2022-08-26T09:14:41;26.67;;;15.82;;
16954;SDS011;8594;52.052;8.354;2022-08-26T09:17:12;25.92;;;17.58;;
16954;SDS011;8594;52.052;8.354;2022-08-26T09:20:06;29.75;;;17.58;;
16954;SDS011;8594;52.052;8.354;2022-08-26T09:22:42;28.45;;;17.80;;
16954;SDS011;8594;52.052;8.354;2022-08-26T09:25:11;29.50;;;18.42;;
16954;SDS011;8594;52.052;8.354;2022-08-26T09:27:42;26.88;;;16.42;;
16954;SDS011;8594;52.052;8.354;2022-08-26T09:30:13;29.67;;;17.63;;
16954;SDS011;8594;52.052;8.354;2022-08-26T09:32:46;30.13;;;18.23;;
16954;SDS011;8594;52.052;8.354;2022-08-26T09:35:26;28.13;;;18.95;;
16954;SDS011;8594;52.052;8.354;2022-08-26T09:37:56;30.65;;;17.05;;
16954;SDS011;8594;52.052;8.354;2022-08-26T09:40:25;32.53;;;19.33;;
16954;SDS011;8594;52.052;8.354;2022-08-26T09:43:07;29.27;;;18.80;;
16954;SDS011;8594;52.052;8.354;2022-08-26T09:45:42;31.45;;;19.85;;
16954;SDS011;8594;52.052;8.354;2022-08-26T09:48:22;27.48;;;17.35;;
16954;SDS011;8594;52.052;8.354;2022-08-26T09:50:54;30.40;;;19.90;;
16954;SDS011;8594;52.052;8.354;2022-08-26T09:53:25;30.73;;;19.90;;
16954;SDS011;8594;52.052;8.354;2022-08-26T09:56:09;26.08;;;16.92;;
16954;SDS011;8594;52.052;8.354;2022-08-26T09:58:43;26.60;;;19.30;;
16954;SDS011;8594;52.052;8.354;2022-08-26T10:01:17;28.05;;;17.92;;
16954;SDS011;8594;52.052;8.354;2022-08-26T10:04:03;30.80;;;20.77;;
16954;SDS011;8594;52.052;8.354;2022-08-26T10:06:35;35.78;;;23.33;;
16954;SDS011;8594;52.052;8.354;2022-08-26T10:09:06;38.53;;;22.88;;
16954;SDS011;8594;52.052;8.354;2022-08-26T10:11:39;33.97;;;22.02;;
16954;SDS011;8594;52.052;8.354;2022-08-26T10:14:14;40.03;;;25.98;;
16954;SDS011;8594;52.052;8.354;2022-08-26T10:16:49;36.85;;;24.02;;
16954;SDS011;8594;52.052;8.354;2022-08-26T10:19:22;43.97;;;27.20;;
16954;SDS011;8594;52.052;8.354;2022-08-26T10:21:59;35.60;;;24.63;;
16954;SDS011;8594;52.052;8.354;2022-08-26T10:24:36;36.65;;;23.25;;
16954;SDS011;8594;52.052;8.354;2022-08-26T10:27:10;39.35;;;23.52;;
16954;SDS011;8594;52.052;8.354;2022-08-26T10:29:55;35.08;;;22.95;;
16954;SDS011;8594;52.052;8.354;2022-08-26T10:32:32;33.00;;;23.17;;
16954;SDS011;8594;52.052;8.354;2022-08-26T10:35:05;32.50;;;20.35;;
16954;SDS011;8594;52.052;8.354;2022-08-26T10:37:37;32.70;;;21.95;;
16954;SDS011;8594;52.052;8.354;2022-08-26T10:40:11;34.22;;;19.83;;
16954;SDS011;8594;52.052;8.354;2022-08-26T10:42:47;34.40;;;21.42;;
16954;SDS011;8594;52.052;8.354;2022-08-26T10:45:24;31.20;;;20.80;;
16954;SDS011;8594;52.052;8.354;2022-08-26T10:47:54;32.63;;;19.10;;
16954;SDS011;8594;52.052;8.354;2022-08-26T10:50:30;33.17;;;21.17;;
16954;SDS011;8594;52.052;8.354;2022-08-26T10:53:02;32.65;;;19.73;;
16954;SDS011;8594;52.052;8.354;2022-08-26T10:55:40;21.88;;;16.23;;
16954;SDS011;8594;52.052;8.354;2022-08-26T10:58:22;21.15;;;16.05;;
16954;SDS011;8594;52.052;8.354;2022-08-26T11:01:09;28.70;;;16.38;;
16954;SDS011;8594;52.052;8.354;2022-08-26T11:04:03;30.00;;;17.08;;
16954;SDS011;8594;52.052;8.354;2022-08-26T11:06:48;28.98;;;16.55;;
16954;SDS011;8594;52.052;8.354;2022-08-26T11:09:50;25.15;;;16.45;;
16954;SDS011;8594;52.052;8.354;2022-08-26T11:18:41;26.40;;;17.77;;
16954;SDS011;8594;52.052;8.354;2022-08-26T11:24:40;30.42;;;19.10;;
16954;SDS011;8594;52.052;8.354;2022-08-26T11:27:20;32.15;;;17.77;;
16954;SDS011;8594;52.052;8.354;2022-08-26T11:30:41;27.10;;;17.98;;
16954;SDS011;8594;52.052;8.354;2022-08-26T11:36:34;27.23;;;18.08;;
16954;SDS011;8594;52.052;8.354;2022-08-26T11:39:30;36.47;;;20.30;;
16954;SDS011;8594;52.052;8.354;2022-08-26T11:42:16;37.22;;;16.80;;
16954;SDS011;8594;52.052;8.354;2022-08-26T11:44:54;26.45;;;17.45;;
16954;SDS011;8594;52.052;8.354;2022-08-26T11:47:26;30.17;;;17.05;;
16954;SDS011;8594;52.052;8.354;2022-08-26T11:50:11;30.60;;;18.52;;
16954;SDS011;8594;52.052;8.354;2022-08-26T11:52:49;31.85;;;20.35;;
16954;SDS011;8594;52.052;8.354;2022-08-26T11:55:19;29.23;;;18.65;;
16954;SDS011;8594;52.052;8.354;2022-08-26T11:57:47;33.58;;;18.52;;
16954;SDS011;8594;52.052;8.354;2022-08-26T12:00:18;35.63;;;19.80;;
16954;SDS011;8594;52.052;8.354;2022-08-26T12:02:48;27.95;;;19.80;;
16954;SDS011;8594;52.052;8.354;2022-08-26T12:05:21;30.45;;;18.63;;
16954;SDS011;8594;52.052;8.354;2022-08-26T12:07:53;24.80;;;18.33;;
16954;SDS011;8594;52.052;8.354;2022-08-26T12:10:24;28.73;;;18.05;;
16954;SDS011;8594;52.052;8.354;2022-08-26T12:12:55;24.83;;;17.50;;
16954;SDS011;8594;52.052;8.354;2022-08-26T12:15:24;26.38;;;18.02;;
16954;SDS011;8594;52.052;8.354;2022-08-26T12:17:53;30.40;;;20.42;;
16954;SDS011;8594;52.052;8.354;2022-08-26T12:20:29;28.98;;;18.77;;
16954;SDS011;8594;52.052;8.354;2022-08-26T12:23:22;28.30;;;18.40;;
16954;SDS011;8594;52.052;8.354;2022-08-26T12:26:01;27.20;;;18.77;;
16954;SDS011;8594;52.052;8.354;2022-08-26T12:28:32;38.65;;;20.83;;
16954;SDS011;8594;52.052;8.354;2022-08-26T12:31:00;33.58;;;19.48;;
16954;SDS011;8594;52.052;8.354;2022-08-26T12:33:29;43.63;;;23.83;;
16954;SDS011;8594;52.052;8.354;2022-08-26T12:36:01;41.65;;;22.20;;
16954;SDS011;8594;52.052;8.354;2022-08-26T12:38:28;29.98;;;20.33;;
16954;SDS011;8594;52.052;8.354;2022-08-26T12:40:57;29.83;;;19.83;;
16954;SDS011;8594;52.052;8.354;2022-08-26T12:43:38;30.58;;;19.65;;
16954;SDS011;8594;52.052;8.354;2022-08-26T12:46:08;38.35;;;20.55;;
16954;SDS011;8594;52.052;8.354;2022-08-26T12:48:39;33.10;;;19.60;;
16954;SDS011;8594;52.052;8.354;2022-08-26T12:51:16;29.02;;;19.65;;
16954;SDS011;8594;52.052;8.354;2022-08-26T12:53:49;30.83;;;18.05;;
16954;SDS011;8594;52.052;8.354;2022-08-26T12:56:20;26.75;;;17.40;;
16954;SDS011;8594;52.052;8.354;2022-08-26T12:58:59;30.10;;;19.20;;
16954;SDS011;8594;52.052;8.354;2022-08-26T13:01:34;32.95;;;20.52;;
16954;SDS011;8594;52.052;8.354;2022-08-26T13:07:13;29.40;;;17.90;;
16954;SDS011;8594;52.052;8.354;2022-08-26T13:09:46;33.75;;;18.52;;
16954;SDS011;8594;52.052;8.354;2022-08-26T13:12:21;29.98;;;18.65;;
16954;SDS011;8594;52.052;8.354;2022-08-26T13:14:54;26.55;;;17.52;;
16954;SDS011;8594;52.052;8.354;2022-08-26T13:17:22;28.77;;;17.45;;
16954;SDS011;8594;52.052;8.354;2022-08-26T13:19:49;34.05;;;17.67;;
16954;SDS011;8594;52.052;8.354;2022-08-26T13:22:18;26.60;;;18.73;;
16954;SDS011;8594;52.052;8.354;2022-08-26T13:24:48;27.90;;;17.60;;
16954;SDS011;8594;52.052;8.354;2022-08-26T13:27:18;25.80;;;17.05;;
16954;SDS011;8594;52.052;8.354;2022-08-26T13:29:48;32.17;;;18.17;;
16954;SDS011;8594;52.052;8.354;2022-08-26T13:32:15;25.87;;;16.97;;
16954;SDS011;8594;52.052;8.354;2022-08-26T13:34:45;29.92;;;16.20;;
16954;SDS011;8594;52.052;8.354;2022-08-26T13:37:15;22.08;;;15.90;;
16954;SDS011;8594;52.052;8.354;2022-08-26T13:39:46;27.63;;;16.57;;
16954;SDS011;8594;52.052;8.354;2022-08-26T13:42:13;24.63;;;15.15;;
16954;SDS011;8594;52.052;8.354;2022-08-26T13:44:40;25.08;;;16.67;;
16954;SDS011;8594;52.052;8.354;2022-08-26T13:47:08;30.65;;;16.85;;
16954;SDS011;8594;52.052;8.354;2022-08-26T13:49:35;26.83;;;16.97;;
16954;SDS011;8594;52.052;8.354;2022-08-26T13:52:02;22.85;;;15.63;;
16954;SDS011;8594;52.052;8.354;2022-08-26T13:54:31;23.45;;;16.30;;
16954;SDS011;8594;52.052;8.354;2022-08-26T13:56:58;27.15;;;15.50;;
16954;SDS011;8594;52.052;8.354;2022-08-26T13:59:25;26.70;;;15.57;;
16954;SDS011;8594;52.052;8.354;2022-08-26T14:01:51;24.15;;;15.38;;
16954;SDS011;8594;52.052;8.354;2022-08-26T14:04:18;23.25;;;16.20;;
16954;SDS011;8594;52.052;8.354;2022-08-26T14:06:46;27.85;;;16.88;;
16954;SDS011;8594;52.052;8.354;2022-08-26T14:09:12;24.23;;;15.13;;
16954;SDS011;8594;52.052;8.354;2022-08-26T14:11:41;21.58;;;14.98;;
16954;SDS011;8594;52.052;8.354;2022-08-26T14:14:07;22.17;;;14.10;;
16954;SDS011;8594;52.052;8.354;2022-08-26T14:16:35;21.63;;;14.07;;
16954;SDS011;8594;52.052;8.354;2022-08-26T14:19:05;25.10;;;15.30;;
16954;SDS011;8594;52.052;8.354;2022-08-26T14:21:34;26.90;;;15.55;;
16954;SDS011;8594;52.052;8.354;2022-08-26T14:24:03;29.43;;;14.67;;
16954;SDS011;8594;52.052;8.354;2022-08-26T14:26:31;26.05;;;15.65;;
16954;SDS011;8594;52.052;8.354;2022-08-26T14:29:00;24.77;;;15.23;;
16954;SDS011;8594;52.052;8.354;2022-08-26T14:31:28;57.50;;;16.47;;
16954;SDS011;8594;52.052;8.354;2022-08-26T14:33:57;23.35;;;15.00;;
16954;SDS011;8594;52.052;8.354;2022-08-26T14:36:29;20.63;;;13.98;;
16954;SDS011;8594;52.052;8.354;2022-08-26T14:38:57;25.13;;;13.70;;
16954;SDS011;8594;52.052;8.354;2022-08-26T14:41:28;28.90;;;15.70;;
16954;SDS011;8594;52.052;8.354;2022-08-26T14:43:57;28.90;;;15.93;;
16954;SDS011;8594;52.052;8.354;2022-08-26T14:46:30;25.97;;;15.67;;
16954;SDS011;8594;52.052;8.354;2022-08-26T14:49:02;24.07;;;16.20;;
16954;SDS011;8594;52.052;8.354;2022-08-26T14:51:29;22.23;;;14.73;;
16954;SDS011;8594;52.052;8.354;2022-08-26T14:53:56;28.17;;;15.97;;
16954;SDS011;8594;52.052;8.354;2022-08-26T14:56:38;24.53;;;15.13;;
16954;SDS011;8594;52.052;8.354;2022-08-26T14:59:17;22.13;;;15.23;;
16954;SDS011;8594;52.052;8.354;2022-08-26T15:01:46;25.90;;;15.63;;
16954;SDS011;8594;52.052;8.354;2022-08-26T15:04:14;26.47;;;15.80;;
16954;SDS011;8594;52.052;8.354;2022-08-26T15:06:42;21.73;;;14.30;;
16954;SDS011;8594;52.052;8.354;2022-08-26T15:09:09;22.27;;;14.10;;
16954;SDS011;8594;52.052;8.354;2022-08-26T15:11:36;27.00;;;14.70;;
16954;SDS011;8594;52.052;8.354;2022-08-26T15:14:04;27.03;;;14.47;;
16954;SDS011;8594;52.052;8.354;2022-08-26T15:16:33;24.27;;;14.03;;